createdAt,value
2019-02-17T00:00:21.449Z,34.70
2019-02-17T00:02:52.083Z,35.33
2019-02-17T00:05:22.565Z,36.60
2019-02-17T00:07:53.044Z,34.53
2019-02-17T00:10:23.570Z,39.30
2019-02-17T00:12:54.114Z,40.83
2019-02-17T00:15:24.578Z,39.83
2019-02-17T00:17:55.103Z,43.07
2019-02-17T00:20:25.572Z,41.00
2019-02-17T00:22:56.087Z,41.93
2019-02-17T00:25:26.549Z,46.83
2019-02-17T00:27:57.092Z,44.50
2019-02-17T00:30:27.558Z,44.37
2019-02-17T00:32:58.021Z,46.93
2019-02-17T00:35:28.521Z,52.13
2019-02-17T00:37:59.050Z,49.50
2019-02-17T00:40:29.521Z,45.37
2019-02-17T00:43:00.030Z,49.33
2019-02-17T00:45:30.548Z,46.67
2019-02-17T00:48:01.018Z,46.53
2019-02-17T00:50:31.582Z,48.43
2019-02-17T00:53:02.102Z,44.67
2019-02-17T00:55:32.570Z,47.33
2019-02-17T00:58:03.036Z,42.37
2019-02-17T01:00:33.526Z,40.57
2019-02-17T01:03:04.098Z,41.20
2019-02-17T01:05:34.616Z,35.97
2019-02-17T01:08:05.213Z,41.40
2019-02-17T01:10:35.729Z,38.70
2019-02-17T01:13:06.265Z,37.60
2019-02-17T01:15:36.802Z,34.97
2019-02-17T01:18:07.278Z,33.07
2019-02-17T01:20:37.804Z,32.47
2019-02-17T01:23:08.374Z,30.60
2019-02-17T01:25:38.828Z,35.60
2019-02-17T01:28:09.342Z,31.90
2019-02-17T01:30:39.842Z,31.07
2019-02-17T01:33:10.361Z,34.80
2019-02-17T01:35:40.901Z,33.33
2019-02-17T01:38:11.363Z,34.03
2019-02-17T01:40:41.827Z,31.00
2019-02-17T01:43:12.356Z,25.37
2019-02-17T01:45:42.834Z,24.43
2019-02-17T01:48:13.344Z,35.20
2019-02-17T01:50:43.810Z,31.53
2019-02-17T01:53:14.438Z,32.03
2019-02-17T01:55:46.967Z,31.53
2019-02-17T01:58:17.121Z,33.17
2019-02-17T02:00:47.711Z,30.60
2019-02-17T02:03:18.249Z,34.33
2019-02-17T02:05:48.722Z,32.83
2019-02-17T02:08:19.229Z,31.63
2019-02-17T02:10:49.693Z,36.73
2019-02-17T02:13:20.205Z,32.77
2019-02-17T02:15:50.717Z,33.87
2019-02-17T02:18:21.235Z,34.83
2019-02-17T02:20:51.697Z,37.23
2019-02-17T02:23:22.219Z,38.93
2019-02-17T02:25:52.854Z,36.00
2019-02-17T02:28:23.327Z,34.87
2019-02-17T02:30:53.793Z,37.07
2019-02-17T02:33:24.304Z,33.73
2019-02-17T02:35:54.826Z,35.70
2019-02-17T02:38:25.341Z,33.97
2019-02-17T02:40:55.866Z,36.60
2019-02-17T02:43:26.339Z,34.73
2019-02-17T02:45:56.810Z,37.23
2019-02-17T02:48:27.273Z,36.07
2019-02-17T02:50:57.756Z,39.67
2019-02-17T02:53:28.221Z,39.00
2019-02-17T02:55:58.721Z,36.73
2019-02-17T02:58:29.224Z,38.70
2019-02-17T03:00:59.723Z,34.97
2019-02-17T03:03:30.190Z,39.30
2019-02-17T03:06:06.972Z,36.73
2019-02-17T03:08:37.485Z,34.73
2019-02-17T03:11:07.954Z,36.67
2019-02-17T03:13:38.470Z,38.50
2019-02-17T03:16:08.962Z,40.67
2019-02-17T03:18:39.437Z,37.17
2019-02-17T03:21:09.969Z,37.30
2019-02-17T03:23:40.477Z,38.43
2019-02-17T03:26:10.971Z,40.87
2019-02-17T03:28:41.469Z,46.47
2019-02-17T03:31:12.048Z,38.63
2019-02-17T03:33:42.563Z,37.80
2019-02-17T03:36:13.316Z,39.50
2019-02-17T03:38:43.781Z,41.13
2019-02-17T03:41:14.284Z,38.13
2019-02-17T03:43:44.783Z,35.17
2019-02-17T03:46:15.250Z,33.97
2019-02-17T03:48:45.858Z,39.17
2019-02-17T03:51:16.325Z,38.40
2019-02-17T03:53:46.828Z,40.23
2019-02-17T03:56:17.305Z,34.10
2019-02-17T03:58:47.868Z,41.93
2019-02-17T04:01:18.347Z,35.70
2019-02-17T04:03:48.858Z,36.43
2019-02-17T04:06:19.542Z,40.50
2019-02-17T04:08:50.057Z,36.87
2019-02-17T04:11:20.563Z,37.20
2019-02-17T04:13:51.039Z,38.93
2019-02-17T04:16:21.502Z,39.10
2019-02-17T04:18:52.012Z,38.40
2019-02-17T04:21:22.485Z,40.77
2019-02-17T04:23:53.009Z,38.67
2019-02-17T04:26:23.483Z,39.07
2019-02-17T04:28:53.997Z,34.30
2019-02-17T04:31:24.461Z,38.83
2019-02-17T04:33:54.980Z,39.23
2019-02-17T04:36:25.449Z,33.37
2019-02-17T04:38:55.958Z,32.43
2019-02-17T04:41:26.428Z,37.83
2019-02-17T04:43:56.941Z,38.43
2019-02-17T04:46:27.398Z,40.67
2019-02-17T04:48:57.896Z,34.87
2019-02-17T04:51:28.401Z,33.17
2019-02-17T04:53:59.057Z,41.27
2019-02-17T04:56:29.638Z,51.70
2019-02-17T04:59:00.104Z,39.40
2019-02-17T05:01:30.573Z,39.57
2019-02-17T05:04:01.188Z,35.77
2019-02-17T05:06:31.652Z,44.63
2019-02-17T05:09:02.153Z,39.00
2019-02-17T05:11:32.622Z,37.13
2019-02-17T05:14:03.094Z,33.57
2019-02-17T05:16:33.595Z,41.50
2019-02-17T05:19:04.059Z,33.97
2019-02-17T05:21:34.568Z,34.50
2019-02-17T05:24:05.040Z,33.17
2019-02-17T05:26:35.515Z,35.97
2019-02-17T05:29:06.023Z,31.47
2019-02-17T05:31:36.542Z,35.03
2019-02-17T05:34:07.083Z,37.47
2019-02-17T05:36:37.586Z,38.67
2019-02-17T05:39:08.088Z,35.97
2019-02-17T05:41:38.590Z,35.63
2019-02-17T05:44:09.053Z,37.97
2019-02-17T05:46:39.554Z,36.30
2019-02-17T05:49:10.063Z,37.60
2019-02-17T05:51:40.543Z,34.10
2019-02-17T05:54:11.050Z,34.60
2019-02-17T05:56:41.514Z,39.77
2019-02-17T05:59:12.025Z,39.80
2019-02-17T06:01:42.550Z,42.67
2019-02-17T06:04:13.015Z,38.63
2019-02-17T06:06:43.498Z,34.87
2019-02-17T06:09:13.978Z,37.47
2019-02-17T06:11:44.582Z,36.83
2019-02-17T06:14:15.043Z,33.90
2019-02-17T06:16:45.657Z,37.80
2019-02-17T06:19:17.790Z,35.37
2019-02-17T06:21:48.414Z,43.07
2019-02-17T06:24:18.921Z,41.33
2019-02-17T06:26:49.558Z,40.53
2019-02-17T06:29:20.077Z,39.30
2019-02-17T06:31:50.544Z,40.43
2019-02-17T06:34:21.065Z,38.07
2019-02-17T06:36:51.575Z,33.37
2019-02-17T06:39:22.087Z,38.83
2019-02-17T06:41:52.554Z,34.30
2019-02-17T06:44:23.062Z,34.77
2019-02-17T06:46:57.155Z,33.63
2019-02-17T06:49:27.619Z,33.43
2019-02-17T06:51:58.094Z,29.10
2019-02-17T06:54:28.612Z,30.13
2019-02-17T06:57:02.449Z,31.87
2019-02-17T06:59:32.955Z,29.67
2019-02-17T07:02:03.590Z,23.57
2019-02-17T07:04:55.999Z,23.80
2019-02-17T07:07:26.462Z,25.93
2019-02-17T07:09:57.182Z,24.77
2019-02-17T07:12:27.672Z,28.20
2019-02-17T07:14:58.138Z,28.50
2019-02-17T07:17:28.636Z,28.23
2019-02-17T07:19:59.087Z,28.90
2019-02-17T07:22:29.555Z,27.90
2019-02-17T07:25:00.019Z,32.23
2019-02-17T07:27:30.554Z,29.50
2019-02-17T07:30:01.010Z,24.57
2019-02-17T07:32:31.474Z,25.37
2019-02-17T07:35:01.989Z,24.10
2019-02-17T07:37:33.839Z,23.93
2019-02-17T07:40:04.469Z,23.63
2019-02-17T07:42:34.938Z,26.40
2019-02-17T07:45:05.779Z,26.20
2019-02-17T07:47:36.233Z,26.50
2019-02-17T07:50:07.454Z,25.03
2019-02-17T07:52:37.922Z,24.67
2019-02-17T07:55:09.013Z,26.30
2019-02-17T07:57:39.469Z,27.20
2019-02-17T08:00:10.275Z,26.80
2019-02-17T08:02:40.782Z,30.07
2019-02-17T08:05:11.392Z,23.00
2019-02-17T08:07:41.862Z,23.37
2019-02-17T08:10:12.474Z,25.47
2019-02-17T08:12:42.955Z,22.83
2019-02-17T08:15:13.668Z,31.83
2019-02-17T08:17:44.121Z,22.00
2019-02-17T08:20:14.634Z,22.57
2019-02-17T08:22:45.155Z,22.77
2019-02-17T08:25:21.699Z,21.77
2019-02-17T08:27:47.999Z,20.80
2019-02-17T08:30:18.625Z,26.30
2019-02-17T08:32:49.228Z,27.23
2019-02-17T08:35:19.637Z,23.07
2019-02-17T08:37:50.247Z,23.03
2019-02-17T08:40:20.733Z,19.97
2019-02-17T08:42:51.197Z,24.13
2019-02-17T08:45:21.697Z,19.43
2019-02-17T08:47:52.159Z,20.80
2019-02-17T08:50:22.631Z,18.47
2019-02-17T08:52:53.152Z,22.37
2019-02-17T08:55:23.623Z,19.63
2019-02-17T08:57:54.146Z,19.80
2019-02-17T09:00:24.614Z,23.57
2019-02-17T09:02:55.111Z,18.83
2019-02-17T09:05:25.592Z,23.97
2019-02-17T09:07:56.067Z,22.20
2019-02-17T09:10:26.542Z,18.63
2019-02-17T09:12:57.059Z,19.90
2019-02-17T09:15:27.581Z,27.80
2019-02-17T09:17:58.059Z,19.10
2019-02-17T09:20:28.579Z,19.57
2019-02-17T09:22:59.082Z,20.37
2019-02-17T09:25:29.593Z,19.70
2019-02-17T09:28:00.094Z,17.90
2019-02-17T09:30:30.603Z,23.57
2019-02-17T09:33:01.113Z,16.97
2019-02-17T09:35:31.633Z,18.13
2019-02-17T09:38:02.218Z,17.73
2019-02-17T09:40:32.731Z,20.47
2019-02-17T09:43:03.338Z,18.67
2019-02-17T09:45:33.823Z,19.70
2019-02-17T09:48:04.386Z,19.13
2019-02-17T09:50:34.896Z,19.10
2019-02-17T09:53:05.358Z,18.10
2019-02-17T09:55:35.875Z,21.30
2019-02-17T09:58:06.447Z,17.60
2019-02-17T10:00:36.953Z,17.17
2019-02-17T10:03:07.461Z,18.30
2019-02-17T10:05:37.941Z,17.17
2019-02-17T10:08:08.424Z,21.40
2019-02-17T10:10:38.910Z,17.50
2019-02-17T10:13:09.419Z,16.00
2019-02-17T10:15:39.945Z,15.53
2019-02-17T10:18:10.458Z,16.83
2019-02-17T10:20:40.931Z,17.30
2019-02-17T10:23:11.415Z,15.00
2019-02-17T10:25:41.942Z,15.73
2019-02-17T10:28:12.407Z,15.87
2019-02-17T10:30:42.991Z,15.20
2019-02-17T10:33:13.459Z,15.13
2019-02-17T10:35:43.978Z,15.53
2019-02-17T10:38:14.881Z,17.43
2019-02-17T10:40:45.388Z,15.97
2019-02-17T10:43:15.908Z,14.63
2019-02-17T10:45:46.395Z,17.47
2019-02-17T10:48:16.926Z,16.67
2019-02-17T10:50:47.443Z,17.03
2019-02-17T10:53:17.961Z,15.37
2019-02-17T10:55:48.426Z,14.43
2019-02-17T10:58:18.896Z,15.30
2019-02-17T11:00:49.426Z,15.63
2019-02-17T11:03:19.941Z,14.40
2019-02-17T11:05:50.513Z,16.43
2019-02-17T11:08:21.012Z,15.80
2019-02-17T11:10:51.483Z,15.40
2019-02-17T11:13:21.998Z,15.10
2019-02-17T11:15:52.455Z,19.80
2019-02-17T11:18:22.971Z,28.67
2019-02-17T11:20:53.513Z,24.70
2019-02-17T11:23:23.971Z,14.97
2019-02-17T11:25:54.442Z,14.47
2019-02-17T11:28:24.954Z,13.33
2019-02-17T11:30:55.548Z,12.73
2019-02-17T11:33:26.026Z,13.33
2019-02-17T11:35:56.646Z,12.50
2019-02-17T11:38:27.157Z,10.80
2019-02-17T11:40:57.623Z,12.53
2019-02-17T11:43:28.090Z,16.20
2019-02-17T11:45:58.555Z,11.23
2019-02-17T11:48:29.182Z,12.03
2019-02-17T11:50:59.763Z,12.60
2019-02-17T11:53:30.300Z,12.07
2019-02-17T11:56:00.816Z,10.60
2019-02-17T11:58:31.537Z,10.40
2019-02-17T12:01:02.049Z,10.90
2019-02-17T12:03:32.650Z,10.33
2019-02-17T12:06:03.106Z,9.93
2019-02-17T12:08:33.601Z,9.17
2019-02-17T12:11:04.100Z,8.77
2019-02-17T12:13:34.609Z,9.20
2019-02-17T12:16:05.117Z,8.90
2019-02-17T12:18:35.617Z,9.43
2019-02-17T12:21:17.843Z,10.53
2019-02-17T12:24:07.204Z,15.63
2019-02-17T12:26:56.504Z,8.27
2019-02-17T12:29:34.097Z,7.43
2019-02-17T12:32:04.649Z,8.07
2019-02-17T12:34:35.163Z,7.57
2019-02-17T12:37:05.672Z,9.77
2019-02-17T12:39:36.126Z,9.73
2019-02-17T12:42:06.625Z,10.87
2019-02-17T12:44:37.139Z,8.07
2019-02-17T12:47:07.605Z,7.67
2019-02-17T12:49:38.109Z,8.50
2019-02-17T12:52:08.560Z,7.30
2019-02-17T12:54:39.222Z,7.63
2019-02-17T12:57:09.689Z,8.40
2019-02-17T12:59:41.214Z,8.07
2019-02-17T13:02:11.773Z,7.63
2019-02-17T13:04:42.271Z,7.03
2019-02-17T13:07:12.732Z,8.10
2019-02-17T13:09:43.253Z,7.93
2019-02-17T13:12:13.717Z,9.43
2019-02-17T13:14:44.182Z,7.37
2019-02-17T13:17:14.771Z,7.53
2019-02-17T13:19:45.231Z,6.87
2019-02-17T13:22:15.685Z,7.20
2019-02-17T13:24:46.145Z,6.87
2019-02-17T13:27:16.593Z,7.17
2019-02-17T13:29:47.097Z,8.33
2019-02-17T13:32:17.552Z,7.33
2019-02-17T13:34:48.122Z,36.93
2019-02-17T13:37:18.636Z,9.77
2019-02-17T13:39:49.113Z,8.63
2019-02-17T13:42:19.625Z,8.37
2019-02-17T13:44:50.127Z,8.67
2019-02-17T13:47:20.633Z,8.43
2019-02-17T13:49:51.085Z,7.80
2019-02-17T13:52:21.574Z,6.60
2019-02-17T13:54:52.091Z,7.37
2019-02-17T13:57:22.612Z,6.50
2019-02-17T13:59:53.127Z,7.20
2019-02-17T14:02:23.599Z,8.97
2019-02-17T14:04:54.117Z,8.23
2019-02-17T14:07:24.592Z,10.37
2019-02-17T14:09:55.049Z,9.90
2019-02-17T14:12:25.573Z,8.77
2019-02-17T14:14:56.037Z,10.20
2019-02-17T14:17:26.487Z,8.73
2019-02-17T14:19:56.994Z,9.33
2019-02-17T14:22:27.451Z,8.57
2019-02-17T14:24:57.956Z,9.53
2019-02-17T14:27:28.432Z,9.90
2019-02-17T14:29:58.922Z,9.30
2019-02-17T14:32:29.375Z,11.47
2019-02-17T14:34:59.835Z,9.43
2019-02-17T14:37:30.348Z,9.87
2019-02-17T14:40:00.872Z,11.63
2019-02-17T14:42:31.519Z,11.57
2019-02-17T14:45:01.991Z,12.53
2019-02-17T14:47:32.458Z,16.30
2019-02-17T14:50:02.959Z,13.83
2019-02-17T14:52:33.527Z,15.33
2019-02-17T14:55:04.163Z,15.17
2019-02-17T14:57:34.637Z,17.30
2019-02-17T15:00:05.796Z,16.00
2019-02-17T15:02:36.312Z,16.57
2019-02-17T15:05:06.954Z,15.87
2019-02-17T15:07:37.573Z,17.70
2019-02-17T15:10:08.930Z,18.47
2019-02-17T15:12:39.456Z,17.20
2019-02-17T15:15:10.268Z,17.83
2019-02-17T15:17:40.739Z,19.00
2019-02-17T15:20:12.526Z,18.23
2019-02-17T15:22:43.038Z,17.43
2019-02-17T15:25:13.622Z,16.53
2019-02-17T15:27:44.143Z,16.97
2019-02-17T15:30:15.083Z,17.00
2019-02-17T15:32:45.604Z,16.83
2019-02-17T15:35:16.072Z,16.37
2019-02-17T15:37:46.653Z,16.43
2019-02-17T15:40:17.258Z,16.73
2019-02-17T15:42:47.791Z,16.57
2019-02-17T15:45:18.404Z,16.13
2019-02-17T15:47:48.913Z,18.90
2019-02-17T15:50:19.410Z,17.43
2019-02-17T15:52:49.903Z,17.87
2019-02-17T15:55:20.424Z,16.47
2019-02-17T15:57:50.940Z,18.37
2019-02-17T16:00:21.533Z,16.50
2019-02-17T16:02:52.045Z,16.13
2019-02-17T16:05:22.513Z,16.90
2019-02-17T16:07:53.097Z,18.87
2019-02-17T16:10:23.614Z,22.30
2019-02-17T16:12:54.127Z,18.23
2019-02-17T16:15:24.769Z,18.63
2019-02-17T16:17:55.293Z,25.30
2019-02-17T16:20:25.758Z,24.07
2019-02-17T16:22:56.231Z,21.47
2019-02-17T16:25:26.738Z,20.70
2019-02-17T16:27:57.211Z,23.67
2019-02-17T16:30:27.717Z,25.83
2019-02-17T16:32:58.171Z,28.47
2019-02-17T16:35:28.686Z,33.90
2019-02-17T16:37:59.212Z,35.07
2019-02-17T16:40:29.693Z,35.87
2019-02-17T16:43:00.220Z,37.43
2019-02-17T16:45:30.848Z,38.90
2019-02-17T16:48:01.321Z,41.83
2019-02-17T16:50:31.967Z,33.77
2019-02-17T16:53:02.443Z,32.90
2019-02-17T16:55:33.070Z,34.97
2019-02-17T16:58:03.585Z,30.87
2019-02-17T17:00:34.129Z,32.87
2019-02-17T17:03:05.103Z,35.33
2019-02-17T17:05:35.579Z,32.33
2019-02-17T17:08:06.196Z,38.87
2019-02-17T17:10:36.661Z,41.13
2019-02-17T17:13:07.183Z,41.80
2019-02-17T17:15:37.637Z,53.17
2019-02-17T17:18:08.209Z,45.80
2019-02-17T17:20:38.833Z,44.83
2019-02-17T17:23:09.339Z,43.80
2019-02-17T17:25:40.064Z,43.50
2019-02-17T17:28:10.569Z,46.13
2019-02-17T17:30:41.133Z,48.80
2019-02-17T17:33:11.653Z,54.70
2019-02-17T17:35:42.124Z,50.97
2019-02-17T17:38:12.586Z,42.90
2019-02-17T17:40:43.108Z,47.13
2019-02-17T17:43:13.578Z,45.10
2019-02-17T17:45:44.043Z,42.63
2019-02-17T17:48:14.542Z,35.47
2019-02-17T17:50:45.078Z,39.63
2019-02-17T17:53:15.543Z,40.27
2019-02-17T17:55:46.057Z,39.77
2019-02-17T17:58:16.527Z,39.47
2019-02-17T18:00:47.081Z,42.30
2019-02-17T18:03:17.542Z,47.13
2019-02-17T18:05:48.058Z,45.27
2019-02-17T18:08:18.641Z,42.17
2019-02-17T18:10:49.106Z,40.63
2019-02-17T18:13:21.881Z,39.37
2019-02-17T18:15:51.822Z,41.70
2019-02-17T18:18:22.291Z,37.53
2019-02-17T18:20:52.766Z,39.80
2019-02-17T18:23:23.234Z,51.90
2019-02-17T18:25:53.729Z,65.23
2019-02-17T18:28:24.242Z,60.63
2019-02-17T18:30:54.758Z,48.53
2019-02-17T18:33:25.225Z,51.07
2019-02-17T18:35:55.755Z,49.70
2019-02-17T18:38:26.213Z,53.97
2019-02-17T18:40:56.754Z,48.63
2019-02-17T18:43:27.221Z,56.10
2019-02-17T18:45:57.690Z,54.03
2019-02-17T18:48:28.202Z,57.80
2019-02-17T18:50:59.443Z,50.87
2019-02-17T18:53:30.069Z,52.23
2019-02-17T18:56:00.527Z,59.87
2019-02-17T18:58:31.080Z,51.97
2019-02-17T19:01:01.611Z,60.70
2019-02-17T19:03:32.135Z,56.50
2019-02-17T19:06:02.648Z,60.57
2019-02-17T19:08:33.159Z,70.90
2019-02-17T19:11:03.670Z,67.37
2019-02-17T19:13:34.129Z,60.97
2019-02-17T19:16:04.742Z,62.93
2019-02-17T19:18:35.274Z,60.07
2019-02-17T19:21:05.863Z,55.87
2019-02-17T19:23:36.329Z,52.60
2019-02-17T19:26:06.804Z,50.93
2019-02-17T19:28:37.323Z,46.33
2019-02-17T19:31:07.786Z,44.10
2019-02-17T19:33:38.300Z,43.20
2019-02-17T19:36:08.772Z,44.17
2019-02-17T19:38:39.282Z,37.13
2019-02-17T19:41:09.754Z,39.03
2019-02-17T19:43:40.264Z,38.67
2019-02-17T19:46:10.781Z,36.40
2019-02-17T19:48:41.294Z,43.10
2019-02-17T19:51:11.753Z,48.40
2019-02-17T19:53:42.267Z,43.90
2019-02-17T19:56:12.838Z,47.03
2019-02-17T19:58:43.321Z,45.97
2019-02-17T20:01:13.785Z,51.63
2019-02-17T20:03:54.122Z,51.57
2019-02-17T20:06:25.886Z,48.03
2019-02-17T20:08:56.493Z,45.00
2019-02-17T20:11:27.046Z,47.47
2019-02-17T20:13:57.509Z,41.43
2019-02-17T20:16:28.056Z,50.53
2019-02-17T20:18:58.582Z,44.13
2019-02-17T20:21:29.094Z,44.03
2019-02-17T20:23:59.613Z,40.47
2019-02-17T20:26:30.186Z,38.47
2019-02-17T20:29:00.663Z,39.17
2019-02-17T20:31:31.269Z,41.60
2019-02-17T20:34:01.792Z,43.93
2019-02-17T20:36:32.261Z,37.30
2019-02-17T20:39:02.867Z,36.63
2019-02-17T20:41:33.453Z,40.57
2019-02-17T20:44:03.919Z,42.27
2019-02-17T20:46:34.428Z,50.43
2019-02-17T20:49:04.915Z,37.20
2019-02-17T20:51:35.420Z,44.97
2019-02-17T20:54:05.981Z,50.90
2019-02-17T20:56:36.554Z,48.63
2019-02-17T20:59:07.080Z,53.53
2019-02-17T21:01:37.695Z,39.07
2019-02-17T21:04:08.215Z,39.83
2019-02-17T21:06:38.835Z,38.90
2019-02-17T21:09:09.332Z,43.20
2019-02-17T21:11:39.792Z,47.80
2019-02-17T21:14:10.327Z,46.63
2019-02-17T21:16:40.838Z,53.00
2019-02-17T21:19:11.306Z,51.97
2019-02-17T21:21:41.778Z,55.47
2019-02-17T21:24:12.301Z,52.93
2019-02-17T21:26:42.761Z,45.83
2019-02-17T21:29:13.274Z,50.43
2019-02-17T21:31:43.834Z,51.13
2019-02-17T21:34:14.370Z,50.10
2019-02-17T21:36:44.817Z,52.20
2019-02-17T21:39:15.265Z,54.30
2019-02-17T21:41:45.786Z,53.70
2019-02-17T21:44:16.772Z,48.33
2019-02-17T21:46:47.188Z,54.83
2019-02-17T21:49:17.709Z,51.27
2019-02-17T21:51:48.168Z,52.07
2019-02-17T21:54:18.621Z,50.40
2019-02-17T21:56:49.148Z,50.97
2019-02-17T21:59:19.657Z,48.23
2019-02-17T22:01:50.122Z,52.50
2019-02-17T22:04:20.646Z,51.00
2019-02-17T22:06:51.173Z,49.33
2019-02-17T22:09:21.641Z,47.60
2019-02-17T22:11:52.145Z,49.37
2019-02-17T22:14:22.598Z,46.57
2019-02-17T22:16:53.097Z,45.43
2019-02-17T22:19:23.564Z,44.97
2019-02-17T22:21:54.076Z,45.97
2019-02-17T22:24:24.540Z,45.27
2019-02-17T22:26:55.053Z,43.10
2019-02-17T22:29:25.605Z,50.10
2019-02-17T22:31:56.074Z,50.13
2019-02-17T22:34:26.588Z,50.57
2019-02-17T22:36:57.042Z,44.13
2019-02-17T22:39:27.564Z,47.67
2019-02-17T22:41:58.074Z,48.97
2019-02-17T22:44:28.581Z,48.07
2019-02-17T22:46:59.054Z,45.93
2019-02-17T22:49:29.513Z,50.07
2019-02-17T22:52:00.370Z,43.97
2019-02-17T22:54:30.825Z,51.00
2019-02-17T22:57:01.341Z,47.30
2019-02-17T22:59:31.818Z,48.63
2019-02-17T23:02:02.410Z,49.00
2019-02-17T23:04:32.977Z,50.47
2019-02-17T23:07:03.576Z,54.37
2019-02-17T23:09:34.186Z,50.73
2019-02-17T23:12:04.829Z,47.67
2019-02-17T23:14:35.345Z,50.93
2019-02-17T23:17:05.858Z,52.37
2019-02-17T23:19:36.347Z,47.97
2019-02-17T23:22:06.820Z,46.30
2019-02-17T23:24:37.513Z,52.50
2019-02-17T23:27:08.124Z,50.33
2019-02-17T23:29:38.576Z,49.60
2019-02-17T23:32:09.072Z,50.20
2019-02-17T23:34:39.532Z,50.90
2019-02-17T23:37:10.045Z,51.33
2019-02-17T23:39:40.511Z,52.50
2019-02-17T23:42:11.035Z,48.33
2019-02-17T23:44:41.490Z,54.83
2019-02-17T23:47:11.997Z,51.83
2019-02-17T23:49:42.470Z,51.90
2019-02-17T23:52:13.078Z,51.80
2019-02-17T23:54:43.542Z,57.23
2019-02-17T23:57:14.045Z,48.20
2019-02-17T23:59:44.559Z,48.93
